Pagrindinis puslapis
METAR-TAF:

METAR-TAF

Oro uostai :

Karlstadas, Švedija

platuma: 59-26-41N, ilguma: 013-20-15E, Aukštis: 107 m

Dabartinis oras

Ataskaita buvo paskelbta 16 minutes, ne 05:50 UTC
Vėjas 8 kt iš Šiaurės Rytų, svyruoja nuo Šiaurės/Šiaurės Rytų ir Rytų
Temperatūra 14°C
Drėgmė 41%
Slėgis 1021 hPa
Matomumas 10 km arba daugiau
nėra debesų žemiau 1500 m ir nėra kamuolinių lietaus debesų

METAR: ESOK 220550Z 05008KT 030V090 CAVOK 14/01 Q1021

Laikas: 08:06 (06:06 UTC)

Prognozė

Ataskaita buvo paskelbta 36 minutes, ne 05:30 UTC
Prognozė galioja nuo 22 metu 06 UTC su 22 metu 15 UTC
Vėjas 7 kt iš Šiaurės Rytų
Matomumas 10 km arba daugiau
nėra debesų žemiau 1500 m ir nėra kamuolinių lietaus debesų
Tapsmas
nuo 22 metu 09 UTC su 22 metu 11 UTC
Vėjas 12 kt iš Rytų

TAF: ESOK 220530Z 2206/2215 04007KT CAVOK BECMG 2209/2211 10012KT

Orai ataskaitas ir orų prognozės (METAR, TAF).

turimą stotys yra geltonos ir raudonos taškus žemėlapyje.

Perkelti pele per norėdami pamatyti stoties vardą.

Tada spustelėkite, norėdami matyti oro stebėjimo ir prognozės.

Norėdami pakeisti žemėlapį: spustelėkite ant žalios mygtukų su juodo kryžiaus žemyn,; žalią mygtuką su brūkšneliu, jei norite nutolinti; arba žalių rodyklių gretimoms žemėlapius.


METAR-TAF: